createdAt,value
2018-10-17T00:04:10.930Z,13.57
2018-10-17T00:09:13.472Z,16.73
2018-10-17T00:14:15.979Z,18.40
2018-10-17T00:19:18.506Z,12.93
2018-10-17T00:24:21.027Z,16.00
2018-10-17T00:29:23.618Z,13.97
2018-10-17T00:34:26.251Z,16.60
2018-10-17T00:39:28.783Z,15.80
2018-10-17T00:44:31.305Z,16.23
2018-10-17T00:49:33.924Z,13.20
2018-10-17T00:54:36.447Z,13.87
2018-10-17T00:59:38.963Z,13.63
2018-10-17T01:04:41.487Z,12.03
2018-10-17T01:09:43.996Z,12.93
2018-10-17T01:14:46.594Z,15.03
2018-10-17T01:19:49.126Z,13.03
2018-10-17T01:24:51.674Z,16.63
2018-10-17T01:29:54.270Z,12.63
2018-10-17T01:34:56.795Z,14.83
2018-10-17T01:39:59.364Z,14.37
2018-10-17T01:45:02.027Z,13.20
2018-10-17T01:50:05.554Z,14.27
2018-10-17T01:55:08.225Z,11.77
2018-10-17T02:00:10.728Z,10.93
2018-10-17T02:05:13.297Z,11.37
2018-10-17T02:10:15.804Z,11.50
2018-10-17T02:15:18.316Z,12.47
2018-10-17T02:20:20.843Z,13.43
2018-10-17T02:25:23.351Z,13.00
2018-10-17T02:30:25.859Z,12.70
2018-10-17T02:35:28.373Z,12.40
2018-10-17T02:40:30.967Z,14.37
2018-10-17T02:45:33.459Z,13.83
2018-10-17T02:50:35.998Z,14.47
2018-10-17T02:55:38.552Z,13.67
2018-10-17T03:00:41.344Z,19.20
2018-10-17T03:05:43.844Z,16.47
2018-10-17T03:10:46.414Z,18.43
2018-10-17T03:15:49.068Z,14.47
2018-10-17T03:20:51.752Z,13.13
2018-10-17T03:25:54.275Z,14.80
2018-10-17T03:30:56.833Z,12.00
2018-10-17T03:35:59.466Z,14.07
2018-10-17T03:41:01.987Z,13.27
2018-10-17T03:46:04.918Z,14.53
2018-10-17T03:51:07.499Z,17.17
2018-10-17T03:56:10.107Z,18.67
2018-10-17T04:01:12.640Z,15.67
2018-10-17T04:06:15.176Z,17.80
2018-10-17T04:11:17.750Z,16.90
2018-10-17T04:16:20.293Z,15.60
2018-10-17T04:21:22.833Z,15.33
2018-10-17T04:26:25.532Z,16.60
2018-10-17T04:31:28.195Z,23.07
2018-10-17T04:36:30.730Z,16.73
2018-10-17T04:41:33.245Z,19.13
2018-10-17T04:46:36.163Z,21.30
2018-10-17T04:51:38.781Z,18.03
2018-10-17T04:56:41.361Z,18.03
2018-10-17T05:01:44.608Z,18.30
2018-10-17T05:06:47.199Z,17.07
2018-10-17T05:11:49.687Z,16.27
2018-10-17T05:16:52.261Z,18.97
2018-10-17T05:21:54.756Z,17.90
2018-10-17T05:26:57.381Z,16.50
2018-10-17T05:31:59.907Z,19.67
2018-10-17T05:37:02.610Z,19.97
2018-10-17T05:42:05.404Z,20.23
2018-10-17T05:47:07.989Z,16.93
2018-10-17T05:52:10.574Z,21.70
2018-10-17T05:57:13.095Z,23.07
2018-10-17T06:02:20.510Z,18.60
2018-10-17T06:07:23.410Z,20.50
2018-10-17T06:12:26.740Z,18.53
2018-10-17T06:17:29.287Z,18.27
2018-10-17T06:22:31.883Z,19.93
2018-10-17T06:27:34.482Z,19.40
2018-10-17T06:32:37.124Z,22.13
2018-10-17T06:37:39.702Z,27.33
2018-10-17T06:42:42.268Z,19.57
2018-10-17T06:47:44.799Z,20.03
2018-10-17T06:52:47.345Z,22.13
2018-10-17T06:57:50.936Z,22.37
2018-10-17T07:02:53.488Z,19.17
2018-10-17T07:07:56.036Z,20.97
2018-10-17T07:12:58.581Z,16.83
2018-10-17T07:18:01.207Z,18.67
2018-10-17T07:23:03.865Z,16.30
2018-10-17T07:28:06.363Z,16.63
2018-10-17T07:33:09.262Z,17.00
2018-10-17T07:38:11.770Z,19.17
2018-10-17T07:43:14.328Z,26.33
2018-10-17T07:48:16.967Z,21.73
2018-10-17T07:53:19.526Z,22.90
2018-10-17T07:58:22.168Z,17.63
2018-10-17T08:03:24.693Z,14.13
2018-10-17T08:08:27.215Z,14.17
2018-10-17T08:13:29.762Z,15.20
2018-10-17T08:18:32.268Z,14.77
2018-10-17T08:23:34.899Z,17.20
2018-10-17T08:28:37.433Z,17.33
2018-10-17T08:33:39.939Z,14.40
2018-10-17T08:38:42.500Z,15.37
2018-10-17T08:43:45.019Z,20.07
2018-10-17T08:48:47.567Z,18.37
2018-10-17T08:53:50.104Z,13.67
2018-10-17T08:58:52.928Z,15.70
2018-10-17T09:03:55.447Z,14.87
2018-10-17T09:08:58.055Z,18.30
2018-10-17T09:14:00.587Z,18.00
2018-10-17T09:19:03.158Z,18.27
2018-10-17T09:24:05.731Z,18.33
2018-10-17T09:29:08.231Z,15.57
2018-10-17T09:34:10.817Z,16.67
2018-10-17T09:39:13.302Z,24.40
2018-10-17T09:44:15.800Z,20.97
2018-10-17T09:49:18.339Z,22.70
2018-10-17T09:54:20.839Z,22.50
2018-10-17T09:59:23.359Z,21.70
2018-10-17T10:04:25.873Z,17.80
2018-10-17T10:09:28.399Z,18.17
2018-10-17T10:14:30.908Z,12.60
2018-10-17T10:19:33.444Z,13.53
2018-10-17T10:24:36.058Z,16.57
2018-10-17T10:29:38.552Z,18.63
2018-10-17T10:34:41.066Z,14.70
2018-10-17T10:39:43.596Z,15.47
2018-10-17T10:44:46.210Z,13.97
2018-10-17T10:49:48.706Z,17.03
2018-10-17T10:54:51.266Z,17.30
2018-10-17T10:59:53.886Z,18.63
2018-10-17T11:04:56.535Z,13.40
2018-10-17T11:09:59.028Z,14.00
2018-10-17T11:15:01.829Z,12.80
2018-10-17T11:20:05.240Z,17.13
2018-10-17T11:25:08.396Z,13.45
2018-10-17T11:30:11.428Z,19.05
2018-10-17T11:35:14.154Z,16.35
2018-10-17T11:40:16.667Z,14.95
2018-10-17T11:45:20.919Z,13.43
2018-10-17T11:50:23.551Z,13.40
2018-10-17T11:55:26.185Z,14.93
2018-10-17T12:00:28.691Z,10.75
2018-10-17T12:05:31.681Z,14.33
2018-10-17T12:10:33.834Z,14.78
2018-10-17T12:15:41.162Z,12.75
2018-10-17T12:20:43.796Z,10.90
2018-10-17T12:25:46.364Z,11.73
2018-10-17T12:30:48.914Z,10.13
2018-10-17T12:35:51.462Z,8.60
2018-10-17T12:40:54.160Z,8.35
2018-10-17T12:45:56.531Z,9.93
2018-10-17T12:50:59.090Z,8.73
2018-10-17T12:56:01.688Z,8.43
2018-10-17T13:01:04.830Z,8.65
2018-10-17T13:06:07.624Z,8.88
2018-10-17T13:11:10.266Z,9.50
2018-10-17T13:16:12.723Z,7.75
2018-10-17T13:21:15.283Z,7.47
2018-10-17T13:26:17.860Z,6.10
2018-10-17T13:31:20.420Z,5.67
2018-10-17T13:36:22.958Z,7.45
2018-10-17T13:41:25.511Z,5.55
2018-10-17T13:46:28.140Z,7.33
2018-10-17T13:51:30.666Z,5.42
2018-10-17T13:56:33.205Z,6.25
2018-10-17T14:01:36.051Z,5.50
2018-10-17T14:06:38.655Z,5.72
2018-10-17T14:11:41.282Z,7.85
2018-10-17T14:16:43.746Z,5.00
2018-10-17T14:21:46.266Z,8.33
2018-10-17T14:26:48.762Z,6.40
2018-10-17T14:31:51.313Z,8.03
2018-10-17T14:36:53.874Z,6.42
2018-10-17T14:41:56.477Z,8.73
2018-10-17T14:47:01.324Z,5.33
2018-10-17T14:52:04.223Z,6.22
2018-10-17T14:57:06.827Z,8.05
2018-10-17T15:02:09.381Z,7.70
2018-10-17T15:07:11.962Z,7.65
2018-10-17T15:12:14.506Z,6.70
2018-10-17T15:17:17.021Z,7.90
2018-10-17T15:22:19.544Z,8.13
2018-10-17T15:27:22.111Z,6.37
2018-10-17T15:32:24.906Z,10.80
2018-10-17T15:37:27.460Z,10.63
2018-10-17T15:42:29.989Z,12.03
2018-10-17T15:47:32.533Z,9.10
2018-10-17T15:52:35.064Z,7.03
2018-10-17T15:57:37.634Z,9.53
2018-10-17T16:02:40.230Z,6.87
2018-10-17T16:07:42.795Z,7.53
2018-10-17T16:12:45.399Z,9.97
2018-10-17T16:17:48.162Z,12.43
2018-10-17T16:22:51.654Z,9.03
2018-10-17T16:27:59.798Z,10.57
2018-10-17T16:33:02.365Z,11.67
2018-10-17T16:38:05.043Z,13.80
2018-10-17T16:43:07.638Z,12.93
2018-10-17T16:48:10.211Z,11.00
2018-10-17T16:53:12.729Z,10.57
2018-10-17T16:58:15.398Z,9.77
2018-10-17T17:03:17.899Z,13.63
2018-10-17T17:08:20.385Z,17.17
2018-10-17T17:13:22.917Z,11.60
2018-10-17T17:18:25.477Z,11.43
2018-10-17T17:23:28.144Z,13.20
2018-10-17T17:28:30.692Z,16.90
2018-10-17T17:33:33.282Z,17.93
2018-10-17T17:38:35.836Z,12.20
2018-10-17T17:43:38.448Z,13.67
2018-10-17T17:48:41.092Z,13.50
2018-10-17T17:53:43.675Z,13.23
2018-10-17T17:58:46.546Z,13.03
2018-10-17T18:03:49.142Z,15.73
2018-10-17T18:08:51.847Z,15.03
2018-10-17T18:13:55.767Z,13.13
2018-10-17T18:18:58.377Z,17.40
2018-10-17T18:24:00.908Z,14.83
2018-10-17T18:29:03.580Z,15.23
2018-10-17T18:34:06.235Z,15.33
2018-10-17T18:39:09.123Z,13.13
2018-10-17T18:44:11.693Z,13.50
2018-10-17T18:49:14.259Z,17.20
2018-10-17T18:54:16.855Z,14.47
2018-10-17T18:59:19.534Z,18.37
2018-10-17T19:04:22.235Z,16.17
2018-10-17T19:09:24.931Z,14.87
2018-10-17T19:14:27.616Z,18.00
2018-10-17T19:19:30.340Z,19.10
2018-10-17T19:24:33.156Z,19.63
2018-10-17T19:29:36.312Z,19.43
2018-10-17T19:34:38.873Z,17.40
2018-10-17T19:39:41.514Z,17.03
2018-10-17T19:44:44.376Z,15.13
2018-10-17T19:49:46.910Z,16.90
2018-10-17T19:54:49.521Z,22.23
2018-10-17T19:59:52.282Z,19.13
2018-10-17T20:04:55.006Z,19.07
2018-10-17T20:09:57.724Z,13.80
2018-10-17T20:15:00.321Z,14.97
2018-10-17T20:20:03.004Z,15.33
2018-10-17T20:25:06.049Z,13.97
2018-10-17T20:30:09.419Z,14.50
2018-10-17T20:35:12.086Z,18.23
2018-10-17T20:40:14.694Z,16.23
2018-10-17T20:45:17.367Z,15.30
2018-10-17T20:50:19.965Z,14.97
2018-10-17T20:55:22.497Z,15.07
2018-10-17T21:00:25.155Z,18.07
2018-10-17T21:05:27.691Z,15.07
2018-10-17T21:10:31.487Z,14.40
2018-10-17T21:15:34.456Z,13.43
2018-10-17T21:20:37.284Z,16.27
2018-10-17T21:25:39.835Z,13.33
2018-10-17T21:30:42.579Z,14.97
2018-10-17T21:35:45.155Z,15.90
2018-10-17T21:40:47.674Z,15.97
2018-10-17T21:45:50.239Z,18.53
2018-10-17T21:50:52.867Z,18.23
2018-10-17T21:55:55.627Z,18.43
2018-10-17T22:00:58.171Z,17.67
2018-10-17T22:06:00.740Z,19.93
2018-10-17T22:11:03.367Z,21.30
2018-10-17T22:16:05.908Z,16.03
2018-10-17T22:21:08.485Z,19.97
2018-10-17T22:26:11.082Z,22.37
2018-10-17T22:31:13.543Z,20.67
2018-10-17T22:36:16.151Z,19.07
2018-10-17T22:41:18.839Z,19.03
2018-10-17T22:46:21.346Z,18.20
2018-10-17T22:51:23.904Z,21.30
2018-10-17T22:56:26.440Z,22.60
2018-10-17T23:01:28.999Z,19.73
2018-10-17T23:06:31.652Z,20.87
2018-10-17T23:11:34.307Z,17.47
2018-10-17T23:16:37.135Z,19.60
2018-10-17T23:21:40.462Z,20.03
2018-10-17T23:26:43.043Z,22.47
2018-10-17T23:31:45.556Z,25.93
2018-10-17T23:36:48.083Z,20.60
2018-10-17T23:41:50.599Z,24.57
2018-10-17T23:46:53.997Z,23.23
2018-10-17T23:51:56.546Z,20.20
2018-10-17T23:56:59.075Z,19.97
